Challenger Kasser — V3UJ3 — position and weather

sailwx.info

Track history (hours):
 
Tides and Currents Weather Stations Pressure Air Temp Water Temp Dewpoint Dewpoint Depression Visibility Wind Speed Wind Dir Waves Ship Positions

Challenger Kasser

Last reported at 2018-Jan-05 16:53 UTC. Time now 2018-Feb-23 12:53 UTC.
Position N 36°25' E 026°53'.
Warning: this ship's position is 48 days out of date.

Length 190 m; draft 9.6 m.

Type: Cargo ship. MMSI: 312099000.

Date/timePositionNaut miles runAvg speedWind from/ knotsBaromVisibWave heightAir tempDewpointWater temp
2018-Jan-05 16:53N 36°25' E 026°53'610.1
2018-Jan-05 16:16N 36°29' E 026°47'310.2
2018-Jan-05 16:00N 36°31' E 026°45'510.1
2018-Jan-05 15:30N 36°35' E 026°40'510.3
2018-Jan-05 15:00N 36°38' E 026°36'510.4
2018-Jan-05 14:30N 36°42' E 026°31'510.4
2018-Jan-05 14:00N 36°45' E 026°26'510.6
2018-Jan-05 13:30N 36°49' E 026°22'510.7
2018-Jan-05 13:00N 36°53' E 026°17'710.5
2018-Jan-05 12:22N 36°58' E 026°11'410.3
2018-Jan-05 12:00N 37°00' E 026°07'510.8
2018-Jan-05 11:30N 37°04' E 026°02'611.1
2018-Jan-05 11:00N 37°07' E 025°57'611.1
2018-Jan-05 10:30N 37°11' E 025°52'510.5
2018-Jan-05 10:00N 37°16' E 025°49'511.0
2018-Jan-05 09:30N 37°21' E 025°47'510.7
2018-Jan-05 09:00N 37°27' E 025°45'510.6
2018-Jan-05 08:30N 37°32' E 025°44'510.5
2018-Jan-05 08:00N 37°37' E 025°42'510.7
2018-Jan-05 07:30N 37°42' E 025°40'510.5
2018-Jan-05 07:00N 37°47' E 025°38'510.7
2018-Jan-05 06:30N 37°52' E 025°36'510.6
2018-Jan-05 06:00N 37°57' E 025°34'510.4
2018-Jan-05 05:30N 38°02' E 025°33'  
Track history (hours):
 
Tides and Currents Weather Stations Pressure Air Temp Water Temp Dewpoint Dewpoint Depression Visibility Wind Speed Wind Dir Waves Ship Positions

Challenger Kasser

Last reported at 2018-Jan-05 16:53 UTC. Time now 2018-Feb-23 12:53 UTC.
Position N 36°25' E 026°53'.
Warning: this ship's position is 48 days out of date.

Length 190 m; draft 9.6 m.

Type: Cargo ship. MMSI: 312099000.

Date/timePositionNaut miles runAvg speedWind from/ knotsBaromVisibWave heightAir tempDewpointWater temp
2018-Jan-05 16:53N 36°25' E 026°53'610.1
2018-Jan-05 16:16N 36°29' E 026°47'310.2
2018-Jan-05 16:00N 36°31' E 026°45'510.1
2018-Jan-05 15:30N 36°35' E 026°40'510.3
2018-Jan-05 15:00N 36°38' E 026°36'510.4
2018-Jan-05 14:30N 36°42' E 026°31'510.4
2018-Jan-05 14:00N 36°45' E 026°26'510.6
2018-Jan-05 13:30N 36°49' E 026°22'510.7
2018-Jan-05 13:00N 36°53' E 026°17'710.5
2018-Jan-05 12:22N 36°58' E 026°11'410.3
2018-Jan-05 12:00N 37°00' E 026°07'510.8
2018-Jan-05 11:30N 37°04' E 026°02'611.1
2018-Jan-05 11:00N 37°07' E 025°57'611.1
2018-Jan-05 10:30N 37°11' E 025°52'510.5
2018-Jan-05 10:00N 37°16' E 025°49'511.0
2018-Jan-05 09:30N 37°21' E 025°47'510.7
2018-Jan-05 09:00N 37°27' E 025°45'510.6
2018-Jan-05 08:30N 37°32' E 025°44'510.5
2018-Jan-05 08:00N 37°37' E 025°42'510.7
2018-Jan-05 07:30N 37°42' E 025°40'510.5
2018-Jan-05 07:00N 37°47' E 025°38'510.7
2018-Jan-05 06:30N 37°52' E 025°36'510.6
2018-Jan-05 06:00N 37°57' E 025°34'510.4
2018-Jan-05 05:30N 38°02' E 025°33'  

Dump ship's entire track history